createdAt,value
2023-01-27T00:01:04.819Z,3.23
2023-01-27T00:03:45.506Z,4.00
2023-01-27T00:06:14.167Z,4.47
2023-01-27T00:08:44.244Z,3.80
2023-01-27T00:11:30.360Z,3.50
2023-01-27T00:13:59.410Z,3.33
2023-01-27T00:16:28.452Z,3.30
2023-01-27T00:18:56.860Z,2.97
2023-01-27T00:21:42.838Z,3.63
2023-01-27T00:24:31.344Z,2.30
2023-01-27T00:26:59.720Z,3.30
2023-01-27T00:29:28.835Z,3.67
2023-01-27T00:32:14.832Z,4.37
2023-01-27T00:34:43.524Z,4.20
2023-01-27T00:37:12.244Z,3.27
2023-01-27T00:39:42.823Z,4.90
2023-01-27T00:42:11.601Z,3.33
2023-01-27T00:45:05.340Z,3.20
2023-01-27T00:47:33.860Z,3.97
2023-01-27T00:50:02.965Z,3.60
2023-01-27T00:52:31.547Z,4.37
2023-01-27T00:55:01.995Z,3.47
2023-01-27T00:57:30.424Z,3.40
2023-01-27T00:59:59.831Z,3.10
2023-01-27T01:02:53.867Z,2.40
2023-01-27T01:05:22.562Z,2.60
2023-01-27T01:07:51.194Z,2.50
2023-01-27T01:10:20.975Z,2.60
2023-01-27T01:12:49.828Z,1.80
2023-01-27T01:15:18.674Z,2.13
2023-01-27T01:17:47.505Z,1.90
2023-01-27T01:20:16.080Z,1.50
2023-01-27T01:22:44.520Z,1.73
2023-01-27T01:25:13.018Z,1.43
2023-01-27T01:27:46.139Z,1.60
2023-01-27T01:30:15.075Z,1.77
2023-01-27T01:32:43.878Z,1.10
2023-01-27T01:35:12.768Z,1.00
2023-01-27T01:37:41.391Z,1.17
2023-01-27T01:40:12.844Z,1.30
2023-01-27T01:42:52.264Z,1.23
2023-01-27T01:45:55.047Z,1.30
2023-01-27T01:48:29.498Z,1.60
2023-01-27T01:51:02.843Z,1.60
2023-01-27T01:53:36.311Z,1.30
2023-01-27T01:56:14.051Z,1.50
2023-01-27T01:58:45.093Z,1.30
2023-01-27T02:01:15.189Z,1.20
2023-01-27T02:03:45.857Z,1.87
2023-01-27T02:06:14.811Z,1.03
2023-01-27T02:08:45.074Z,1.60
2023-01-27T02:11:14.239Z,1.43
2023-01-27T02:13:44.680Z,1.53
2023-01-27T02:16:14.199Z,1.73
2023-01-27T02:18:43.432Z,1.40
2023-01-27T02:21:12.008Z,1.50
2023-01-27T02:23:51.029Z,1.33
2023-01-27T02:26:23.093Z,0.97
2023-01-27T02:28:57.268Z,1.33
2023-01-27T02:31:26.453Z,1.50
2023-01-27T02:34:03.511Z,1.60
2023-01-27T02:36:34.524Z,1.47
2023-01-27T02:39:03.625Z,1.60
2023-01-27T02:41:36.450Z,1.70
2023-01-27T02:44:05.263Z,1.57
2023-01-27T02:46:33.970Z,2.20
2023-01-27T02:49:02.372Z,2.37
2023-01-27T02:51:31.053Z,2.00
2023-01-27T02:54:02.350Z,1.97
2023-01-27T02:56:31.131Z,1.40
2023-01-27T02:59:01.040Z,2.57
2023-01-27T03:01:32.921Z,2.57
2023-01-27T03:04:02.515Z,2.30
2023-01-27T03:06:31.076Z,1.63
2023-01-27T03:09:00.310Z,1.80
2023-01-27T03:11:46.395Z,2.20
2023-01-27T03:14:16.382Z,1.53
2023-01-27T03:17:02.485Z,1.87
2023-01-27T03:19:31.767Z,2.07
2023-01-27T03:22:03.592Z,2.87
2023-01-27T03:24:32.415Z,2.30
2023-01-27T03:27:00.964Z,2.30
2023-01-27T03:29:47.972Z,2.60
2023-01-27T03:32:16.515Z,3.20
2023-01-27T03:34:45.342Z,2.50
2023-01-27T03:37:31.196Z,2.00
2023-01-27T03:40:17.303Z,2.53
2023-01-27T03:43:03.334Z,2.83
2023-01-27T03:45:50.537Z,3.17
2023-01-27T03:48:21.181Z,2.80
2023-01-27T03:50:53.381Z,3.57
2023-01-27T03:53:22.252Z,2.80
2023-01-27T03:55:50.606Z,3.37
2023-01-27T03:58:21.087Z,3.80
2023-01-27T04:00:52.026Z,4.30
2023-01-27T04:03:38.650Z,4.03
2023-01-27T04:06:25.593Z,3.93
2023-01-27T04:08:54.695Z,3.30
2023-01-27T04:11:40.921Z,3.53
2023-01-27T04:14:10.611Z,5.87
2023-01-27T04:16:40.710Z,3.70
2023-01-27T04:19:10.939Z,5.30
2023-01-27T04:21:39.983Z,5.43
2023-01-27T04:24:17.579Z,5.30
2023-01-27T04:26:46.774Z,4.27
2023-01-27T04:29:16.083Z,4.60
2023-01-27T04:31:46.147Z,4.80
2023-01-27T04:34:15.140Z,3.90
2023-01-27T04:36:45.993Z,4.73
2023-01-27T04:39:15.138Z,4.13
2023-01-27T04:41:43.801Z,4.13
2023-01-27T04:44:12.114Z,4.10
2023-01-27T04:46:40.736Z,4.43
2023-01-27T04:49:11.378Z,4.33
2023-01-27T04:51:40.235Z,5.50
2023-01-27T04:54:09.089Z,5.03
2023-01-27T04:56:38.543Z,4.90
2023-01-27T04:59:09.083Z,5.10
2023-01-27T05:01:38.375Z,5.10
2023-01-27T05:04:17.623Z,4.40
2023-01-27T05:06:46.293Z,4.90
2023-01-27T05:09:15.310Z,4.90
2023-01-27T05:11:43.995Z,5.10
2023-01-27T05:14:14.089Z,5.37
2023-01-27T05:16:42.864Z,5.30
2023-01-27T05:19:11.309Z,3.80
2023-01-27T05:21:41.110Z,4.57
2023-01-27T05:24:09.711Z,4.80
2023-01-27T05:26:38.493Z,3.83
2023-01-27T05:29:06.919Z,4.20
2023-01-27T05:31:38.897Z,4.20
2023-01-27T05:34:07.341Z,4.23
2023-01-27T05:36:35.837Z,4.83
2023-01-27T05:39:07.776Z,4.10
2023-01-27T05:41:37.553Z,3.80
2023-01-27T05:44:06.495Z,5.37
2023-01-27T05:46:35.272Z,3.97
2023-01-27T05:49:05.742Z,5.07
2023-01-27T05:51:36.233Z,4.23
2023-01-27T05:54:06.534Z,5.30
2023-01-27T05:56:35.420Z,3.90
2023-01-27T05:59:04.118Z,3.97
2023-01-27T06:01:35.679Z,4.57
2023-01-27T06:08:22.927Z,5.00
2023-01-27T06:10:53.780Z,6.70
2023-01-27T06:13:23.759Z,6.83
2023-01-27T06:15:53.709Z,4.90
2023-01-27T06:18:22.246Z,5.10
2023-01-27T06:20:51.136Z,4.33
2023-01-27T06:23:20.264Z,4.60
2023-01-27T06:25:50.143Z,4.23
2023-01-27T06:29:08.824Z,4.30
2023-01-27T06:31:40.051Z,4.37
2023-01-27T06:34:10.229Z,4.27
2023-01-27T06:36:43.820Z,4.00
2023-01-27T06:39:18.478Z,3.80
2023-01-27T06:41:48.109Z,5.57
2023-01-27T06:44:17.053Z,5.20
2023-01-27T06:46:47.659Z,4.97
2023-01-27T06:49:16.624Z,5.20
2023-01-27T06:51:45.485Z,5.27
2023-01-27T06:54:15.637Z,5.30
2023-01-27T06:56:50.199Z,4.90
2023-01-27T06:59:18.932Z,4.93
2023-01-27T07:01:49.737Z,5.70
2023-01-27T07:04:18.047Z,7.13
2023-01-27T07:06:49.727Z,5.60
2023-01-27T07:09:18.686Z,4.43
2023-01-27T07:11:47.303Z,4.57
2023-01-27T07:14:16.032Z,4.47
2023-01-27T07:16:44.932Z,5.00
2023-01-27T07:19:15.340Z,4.40
2023-01-27T07:21:43.974Z,4.13
2023-01-27T07:24:14.373Z,5.13
2023-01-27T07:26:45.308Z,4.63
2023-01-27T07:29:13.799Z,4.30
2023-01-27T07:31:42.637Z,5.10
2023-01-27T07:34:11.075Z,4.13
2023-01-27T07:36:41.221Z,4.60
2023-01-27T07:39:11.546Z,4.87
2023-01-27T07:41:40.078Z,4.20
2023-01-27T07:44:08.924Z,5.97
2023-01-27T07:46:37.606Z,5.13
2023-01-27T07:49:08.567Z,6.07
2023-01-27T07:51:44.800Z,4.83
2023-01-27T07:54:14.768Z,4.80
2023-01-27T07:56:43.525Z,4.30
2023-01-27T07:59:12.452Z,6.27
2023-01-27T08:01:46.478Z,5.50
2023-01-27T08:04:16.084Z,5.07
2023-01-27T08:06:44.760Z,5.03
2023-01-27T08:09:14.744Z,4.70
2023-01-27T08:11:46.313Z,4.90
2023-01-27T08:14:16.544Z,4.90
2023-01-27T08:16:46.171Z,5.13
2023-01-27T08:19:14.978Z,5.00
2023-01-27T08:21:43.691Z,5.10
2023-01-27T08:24:13.495Z,5.80
2023-01-27T08:26:43.592Z,4.73
2023-01-27T08:29:12.240Z,5.13
2023-01-27T08:31:41.889Z,5.17
2023-01-27T08:34:10.910Z,5.40
2023-01-27T08:36:42.641Z,4.80
2023-01-27T08:39:11.277Z,6.20
2023-01-27T08:41:40.132Z,5.77
2023-01-27T08:44:10.126Z,5.10
2023-01-27T08:46:38.949Z,4.53
2023-01-27T08:49:08.017Z,4.57
2023-01-27T08:51:36.594Z,5.20
2023-01-27T08:54:30.482Z,4.70
2023-01-27T08:56:58.969Z,5.03
2023-01-27T08:59:29.997Z,4.50
2023-01-27T09:01:58.453Z,4.10
2023-01-27T09:04:27.069Z,5.13
2023-01-27T09:06:55.763Z,5.27
2023-01-27T09:09:34.134Z,4.50
2023-01-27T09:12:02.566Z,4.90
2023-01-27T09:14:32.535Z,4.40
2023-01-27T09:17:00.843Z,5.37
2023-01-27T09:19:29.369Z,4.47
2023-01-27T09:21:57.985Z,4.93
2023-01-27T09:24:26.728Z,4.37
2023-01-27T09:26:55.407Z,5.00
2023-01-27T09:30:15.436Z,5.60
2023-01-27T09:32:45.753Z,4.77
2023-01-27T09:35:17.038Z,4.87
2023-01-27T09:37:50.364Z,5.17
2023-01-27T09:40:31.725Z,5.20
2023-01-27T09:43:19.265Z,5.37
2023-01-27T09:46:01.999Z,3.20
2023-01-27T09:48:46.531Z,4.30
2023-01-27T09:51:20.289Z,3.87
2023-01-27T09:54:30.765Z,4.40
2023-01-27T09:57:14.991Z,4.57
2023-01-27T10:00:02.653Z,4.30
2023-01-27T10:02:47.150Z,4.40
2023-01-27T10:05:45.194Z,4.77
2023-01-27T10:08:34.688Z,4.17
2023-01-27T10:11:13.378Z,4.97
2023-01-27T10:13:53.113Z,4.33
2023-01-27T10:16:41.547Z,5.10
2023-01-27T10:19:23.016Z,5.57
2023-01-27T10:21:59.816Z,4.23
2023-01-27T10:24:37.300Z,4.70
2023-01-27T10:27:10.385Z,6.00
2023-01-27T10:29:43.182Z,6.33
2023-01-27T10:32:17.442Z,5.90
2023-01-27T10:34:50.167Z,5.40
2023-01-27T10:37:30.772Z,4.77
2023-01-27T10:40:04.982Z,4.90
2023-01-27T10:42:38.262Z,4.83
2023-01-27T10:45:21.641Z,5.73
2023-01-27T10:48:00.685Z,4.13
2023-01-27T10:50:36.591Z,5.17
2023-01-27T10:53:11.825Z,5.27
2023-01-27T10:55:43.834Z,5.47
2023-01-27T10:58:17.942Z,6.23
2023-01-27T11:03:41.407Z,4.67
2023-01-27T11:06:14.191Z,6.90
2023-01-27T11:08:47.622Z,6.37
2023-01-27T11:11:34.942Z,6.30
2023-01-27T11:14:07.311Z,6.20
2023-01-27T11:16:45.735Z,6.03
2023-01-27T11:19:22.449Z,6.80
2023-01-27T11:22:08.059Z,6.13
2023-01-27T11:24:44.497Z,5.57
2023-01-27T11:27:19.660Z,6.07
2023-01-27T11:29:50.983Z,5.90
2023-01-27T11:32:32.998Z,5.33
2023-01-27T11:35:05.963Z,5.90
2023-01-27T11:37:37.886Z,5.67
2023-01-27T11:40:17.501Z,5.57
2023-01-27T11:42:46.751Z,7.60
2023-01-27T11:45:40.762Z,9.73
2023-01-27T11:48:17.705Z,9.33
2023-01-27T11:51:02.621Z,8.00
2023-01-27T11:53:40.193Z,6.30
2023-01-27T11:56:15.864Z,6.80
2023-01-27T11:59:08.801Z,10.10
2023-01-27T12:01:47.941Z,7.80
2023-01-27T12:04:22.684Z,7.07
2023-01-27T12:07:04.053Z,7.93
2023-01-27T12:09:35.017Z,7.63
2023-01-27T12:12:23.809Z,5.77
2023-01-27T12:14:54.586Z,6.20
2023-01-27T12:17:28.366Z,6.27
2023-01-27T12:20:04.109Z,5.17
2023-01-27T12:22:35.029Z,6.10
2023-01-27T12:25:40.853Z,6.97
2023-01-27T12:28:23.257Z,6.63
2023-01-27T12:30:53.065Z,7.93
2023-01-27T12:33:25.157Z,8.43
2023-01-27T12:35:59.126Z,8.13
2023-01-27T12:38:29.120Z,9.93
2023-01-27T12:41:02.001Z,9.50
2023-01-27T12:43:32.320Z,11.70
2023-01-27T12:46:19.904Z,12.43
2023-01-27T12:48:51.407Z,12.40
2023-01-27T12:51:22.903Z,10.20
2023-01-27T12:53:52.425Z,10.90
2023-01-27T12:56:22.681Z,10.80
2023-01-27T12:59:02.751Z,9.10
2023-01-27T13:01:32.513Z,8.93
2023-01-27T13:04:04.277Z,10.10
2023-01-27T13:06:36.627Z,8.63
2023-01-27T13:09:07.473Z,11.13
2023-01-27T13:11:41.140Z,11.07
2023-01-27T13:14:17.855Z,9.37
2023-01-27T13:17:26.023Z,10.83
2023-01-27T13:19:55.249Z,10.57
2023-01-27T13:22:25.854Z,12.10
2023-01-27T13:25:01.031Z,9.90
2023-01-27T13:27:32.566Z,11.90
2023-01-27T13:30:07.088Z,10.67
2023-01-27T13:32:37.251Z,13.53
2023-01-27T13:35:10.263Z,14.97
2023-01-27T13:37:42.472Z,15.80
2023-01-27T13:40:16.719Z,13.50
2023-01-27T13:42:49.425Z,12.00
2023-01-27T13:45:25.207Z,11.60
2023-01-27T13:47:56.801Z,10.37
2023-01-27T13:50:32.741Z,11.60
2023-01-27T13:53:02.524Z,11.87
2023-01-27T13:55:49.504Z,10.30
2023-01-27T13:58:24.205Z,9.73
2023-01-27T14:01:03.146Z,10.07
2023-01-27T14:04:00.217Z,9.70
2023-01-27T14:06:38.327Z,9.27
2023-01-27T14:09:16.927Z,16.40
2023-01-27T14:11:49.528Z,14.40
2023-01-27T14:14:38.348Z,13.63
2023-01-27T14:17:26.752Z,11.87
2023-01-27T14:20:07.696Z,11.87
2023-01-27T14:22:44.241Z,12.53
2023-01-27T14:25:21.895Z,13.33
2023-01-27T14:30:30.945Z,11.13
2023-01-27T14:33:05.578Z,11.73
2023-01-27T14:35:40.898Z,12.53
2023-01-27T14:38:14.219Z,12.00
2023-01-27T14:40:51.629Z,12.63
2023-01-27T14:43:29.832Z,12.40
2023-01-27T14:46:04.546Z,10.80
2023-01-27T14:48:54.208Z,12.00
2023-01-27T14:51:28.934Z,12.97
2023-01-27T14:54:25.666Z,12.63
2023-01-27T14:57:10.210Z,15.90
2023-01-27T14:59:46.496Z,13.27
2023-01-27T15:02:28.951Z,14.43
2023-01-27T15:05:07.468Z,11.57
2023-01-27T15:07:48.064Z,9.37
2023-01-27T15:10:24.383Z,8.50
2023-01-27T15:13:39.615Z,8.67
2023-01-27T15:16:29.969Z,11.90
2023-01-27T15:19:25.026Z,8.00
2023-01-27T15:22:15.854Z,7.70
2023-01-27T15:24:58.474Z,8.47
2023-01-27T15:27:27.439Z,8.07
2023-01-27T15:29:56.251Z,7.90
2023-01-27T15:32:31.927Z,8.47
2023-01-27T15:35:34.967Z,9.40
2023-01-27T15:38:20.469Z,10.70
2023-01-27T15:41:01.875Z,7.80
2023-01-27T15:43:32.506Z,8.80
2023-01-27T15:46:21.532Z,8.33
2023-01-27T15:48:50.150Z,6.60
2023-01-27T15:51:29.554Z,6.13
2023-01-27T15:54:01.451Z,7.50
2023-01-27T15:56:48.913Z,9.53
2023-01-27T15:59:46.921Z,7.30
2023-01-27T16:02:31.224Z,6.80
2023-01-27T16:05:28.055Z,6.70
2023-01-27T16:08:00.681Z,6.60
2023-01-27T16:13:26.930Z,7.70
2023-01-27T16:16:24.541Z,7.10
2023-01-27T16:18:58.387Z,7.53
2023-01-27T16:21:39.620Z,6.93
2023-01-27T16:24:15.820Z,8.40
2023-01-27T16:26:49.715Z,7.03
2023-01-27T16:29:35.487Z,7.27
2023-01-27T16:32:06.966Z,6.30
2023-01-27T16:34:37.425Z,6.77
2023-01-27T16:37:17.582Z,6.70
2023-01-27T16:39:48.514Z,7.83
2023-01-27T16:42:19.447Z,12.00
2023-01-27T16:45:00.880Z,7.93
2023-01-27T16:47:31.321Z,8.90
2023-01-27T16:50:00.801Z,7.57
2023-01-27T16:52:41.846Z,6.70
2023-01-27T16:55:21.962Z,6.07
2023-01-27T16:57:52.525Z,5.20
2023-01-27T17:00:23.747Z,6.93
2023-01-27T17:02:53.273Z,8.20
2023-01-27T17:05:22.843Z,7.30
2023-01-27T17:08:18.125Z,6.40
2023-01-27T17:10:51.234Z,5.90
2023-01-27T17:13:33.048Z,9.30
2023-01-27T17:16:03.463Z,10.30
2023-01-27T17:18:40.389Z,10.77
2023-01-27T17:21:17.917Z,10.00
2023-01-27T17:23:46.978Z,10.10
2023-01-27T17:26:17.382Z,10.83
2023-01-27T17:28:48.715Z,8.23
2023-01-27T17:31:20.829Z,8.17
2023-01-27T17:33:57.310Z,8.00
2023-01-27T17:36:26.808Z,7.07
2023-01-27T17:38:58.803Z,7.90
2023-01-27T17:41:47.126Z,6.40
2023-01-27T17:44:17.322Z,7.67
2023-01-27T17:46:45.854Z,6.87
2023-01-27T17:49:16.697Z,7.30
2023-01-27T17:51:47.012Z,6.70
2023-01-27T17:54:23.342Z,7.43
2023-01-27T17:56:53.911Z,6.43
2023-01-27T17:59:26.774Z,6.63
2023-01-27T18:01:56.642Z,6.80
2023-01-27T18:04:25.681Z,10.10
2023-01-27T18:06:55.068Z,7.43
2023-01-27T18:09:27.139Z,8.60
2023-01-27T18:11:58.779Z,9.93
2023-01-27T18:14:30.708Z,9.00
2023-01-27T18:17:01.071Z,8.50
2023-01-27T18:19:30.193Z,8.60
2023-01-27T18:22:22.649Z,8.50
2023-01-27T18:24:52.949Z,9.97
2023-01-27T18:27:33.207Z,9.33
2023-01-27T18:30:10.811Z,9.00
2023-01-27T18:32:41.605Z,8.10
2023-01-27T18:35:27.137Z,8.30
2023-01-27T18:37:59.631Z,11.03
2023-01-27T18:40:30.724Z,12.50
2023-01-27T18:43:00.177Z,9.20
2023-01-27T18:45:30.869Z,9.00
2023-01-27T18:48:04.023Z,8.43
2023-01-27T18:50:32.955Z,7.20
2023-01-27T18:53:02.219Z,8.37
2023-01-27T18:55:31.645Z,10.30
2023-01-27T18:58:01.685Z,9.30
2023-01-27T19:00:36.959Z,10.80
2023-01-27T19:03:08.708Z,8.43
2023-01-27T19:05:37.753Z,9.43
2023-01-27T19:08:06.891Z,7.90
2023-01-27T19:10:35.866Z,8.40
2023-01-27T19:13:05.870Z,9.50
2023-01-27T19:15:40.025Z,9.10
2023-01-27T19:18:16.854Z,9.00
2023-01-27T19:20:46.777Z,11.17
2023-01-27T19:23:19.869Z,10.60
2023-01-27T19:25:51.344Z,9.33
2023-01-27T19:28:24.977Z,8.80
2023-01-27T19:30:55.138Z,8.80
2023-01-27T19:33:25.250Z,9.30
2023-01-27T19:35:55.238Z,9.17
2023-01-27T19:38:24.665Z,8.23
2023-01-27T19:40:55.225Z,10.67
2023-01-27T19:43:24.118Z,11.57
2023-01-27T19:45:54.964Z,12.93
2023-01-27T19:48:26.532Z,12.50
2023-01-27T19:50:55.186Z,12.63
2023-01-27T19:53:31.403Z,13.07
2023-01-27T19:56:00.303Z,13.43
2023-01-27T19:58:29.743Z,11.20
2023-01-27T20:01:00.816Z,12.50
2023-01-27T20:03:31.395Z,12.47
2023-01-27T20:06:00.606Z,12.20
2023-01-27T20:08:29.469Z,11.27
2023-01-27T20:10:57.918Z,13.20
2023-01-27T20:13:26.944Z,11.87
2023-01-27T20:15:59.096Z,11.73
2023-01-27T20:18:29.144Z,13.00
2023-01-27T20:21:03.835Z,13.60
2023-01-27T20:23:57.809Z,12.60
2023-01-27T20:26:27.441Z,12.00
2023-01-27T20:28:56.255Z,12.30
2023-01-27T20:31:25.655Z,11.10
2023-01-27T20:33:56.033Z,10.00
2023-01-27T20:36:25.431Z,11.93
2023-01-27T20:38:54.149Z,10.00
2023-01-27T20:41:24.373Z,13.77
2023-01-27T20:44:00.685Z,14.17
2023-01-27T20:46:30.122Z,14.30
2023-01-27T20:49:01.287Z,12.40
2023-01-27T20:51:30.234Z,12.87
2023-01-27T20:54:01.647Z,10.63
2023-01-27T20:56:30.233Z,12.40
2023-01-27T20:59:01.752Z,12.33
2023-01-27T21:01:30.515Z,12.20
2023-01-27T21:04:00.884Z,12.57
2023-01-27T21:06:30.158Z,12.70
2023-01-27T21:08:59.115Z,12.03
2023-01-27T21:11:29.991Z,12.27
2023-01-27T21:13:58.827Z,12.17
2023-01-27T21:16:28.202Z,14.90
2023-01-27T21:18:57.386Z,14.53
2023-01-27T21:21:32.067Z,31.60
2023-01-27T21:24:01.856Z,35.60
2023-01-27T21:26:32.964Z,28.50
2023-01-27T21:29:05.007Z,17.10
2023-01-27T21:31:34.051Z,16.30
2023-01-27T21:34:04.881Z,12.67
2023-01-27T21:36:35.294Z,13.60
2023-01-27T21:39:04.295Z,14.37
2023-01-27T21:41:51.050Z,14.43
2023-01-27T21:44:39.064Z,15.33
2023-01-27T21:47:08.502Z,12.83
2023-01-27T21:49:58.651Z,14.10
2023-01-27T21:52:34.040Z,11.63
2023-01-27T21:55:03.029Z,12.17
2023-01-27T21:57:32.098Z,11.20
2023-01-27T22:00:00.594Z,10.90
2023-01-27T22:02:29.911Z,10.03
2023-01-27T22:04:58.341Z,11.03
2023-01-27T22:07:34.474Z,11.20
2023-01-27T22:10:03.562Z,10.83
2023-01-27T22:12:32.890Z,10.63
2023-01-27T22:15:01.717Z,9.97
2023-01-27T22:17:30.555Z,10.37
2023-01-27T22:19:59.271Z,11.30
2023-01-27T22:22:33.914Z,13.27
2023-01-27T22:25:27.853Z,10.30
2023-01-27T22:27:56.821Z,16.10
2023-01-27T22:30:25.415Z,13.83
2023-01-27T22:32:54.576Z,13.90
2023-01-27T22:35:23.741Z,13.90
2023-01-27T22:37:54.190Z,13.80
2023-01-27T22:40:23.383Z,11.80
2023-01-27T22:42:52.141Z,11.10
2023-01-27T22:45:20.989Z,12.37
2023-01-27T22:47:50.507Z,13.67
2023-01-27T22:50:19.925Z,12.80
2023-01-27T22:52:49.055Z,10.90
2023-01-27T22:55:20.494Z,13.27
2023-01-27T22:57:49.239Z,11.40
2023-01-27T23:00:19.298Z,13.27
2023-01-27T23:02:47.766Z,12.67
2023-01-27T23:05:21.075Z,11.63
2023-01-27T23:07:49.830Z,12.40
2023-01-27T23:10:20.129Z,12.20
2023-01-27T23:12:51.038Z,11.00
2023-01-27T23:15:20.112Z,12.40
2023-01-27T23:17:49.844Z,10.97
2023-01-27T23:20:19.113Z,13.10
2023-01-27T23:22:47.814Z,12.30
2023-01-27T23:25:17.148Z,11.37
2023-01-27T23:27:47.654Z,11.87
2023-01-27T23:30:16.488Z,11.07
2023-01-27T23:32:46.083Z,10.93
2023-01-27T23:35:15.759Z,11.47
2023-01-27T23:37:44.426Z,11.93
2023-01-27T23:40:16.059Z,13.10
2023-01-27T23:42:50.087Z,12.50
2023-01-27T23:45:44.130Z,12.53
2023-01-27T23:48:12.797Z,11.97
2023-01-27T23:50:47.505Z,11.00
2023-01-27T23:53:16.603Z,11.57
2023-01-27T23:55:45.378Z,13.03
2023-01-27T23:58:15.420Z,12.50
